Time;durP1;ratioP1;P1;durP2;ratioP2;P2;SDS_P1;SDS_P2;PMS_P1;PMS_P2;Temp;Humidity;BMP_temperature;BMP_pressure;BME280_temperature;BME280_humidity;BME280_pressure;Samples;Min_cycle;Max_cycle;Signal;HPM_P1;HPM_P2
2021/10/17 00:03:18;;;;;;;10.63;8.20;;;;;;;7.12;91.31;99723.47;2331245;66;31654;-81
2021/10/17 00:06:28;;;;;;;12.52;8.52;;;;;;;7.19;90.95;99721.00;2326331;69;20304;-80
2021/10/17 00:09:57;;;;;;;11.57;8.05;;;;;;;7.23;90.65;99711.59;2327576;69;20303;-80
2021/10/17 00:13:13;;;;;;;13.02;9.30;;;;;;;7.26;90.57;99712.50;2327447;68;20312;-80
2021/10/17 00:16:15;;;;;;;15.15;9.59;;;;;;;7.34;90.75;99706.53;2326495;69;20152;-81
2021/10/17 00:19:18;;;;;;;15.43;10.02;;;;;;;7.39;90.88;99713.53;2327542;69;20302;-81
2021/10/17 00:22:23;;;;;;;15.79;10.25;;;;;;;7.45;90.95;99710.16;2325547;69;20288;-81
2021/10/17 00:25:27;;;;;;;15.85;11.27;;;;;;;7.52;91.15;99711.97;2332996;68;20310;-81
2021/10/17 00:28:29;;;;;;;17.19;11.24;;;;;;;7.57;91.15;99716.34;2332386;69;20336;-81
2021/10/17 00:31:33;;;;;;;17.74;11.60;;;;;;;7.65;91.35;99715.56;2331611;69;20377;-81
2021/10/17 00:34:36;;;;;;;19.08;11.66;;;;;;;7.73;91.65;99716.56;2328365;68;20293;-81
2021/10/17 00:37:42;;;;;;;17.39;11.36;;;;;;;7.79;91.84;99720.06;2323082;69;20365;-81
2021/10/17 00:40:59;;;;;;;20.20;12.32;;;;;;;7.84;91.87;99715.81;2327391;69;20383;-81
2021/10/17 00:44:03;;;;;;;19.96;12.68;;;;;;;7.91;92.06;99715.91;2321306;69;20297;-82
2021/10/17 00:47:06;;;;;;;17.64;11.66;;;;;;;7.93;91.98;99714.19;2325062;66;38185;-82
2021/10/17 00:50:10;;;;;;;19.42;11.64;;;;;;;7.99;91.93;99703.91;2325167;69;20302;-81
2021/10/17 00:53:13;;;;;;;17.74;11.36;;;;;;;8.01;91.94;99703.06;2328731;69;20320;-81
2021/10/17 00:56:16;;;;;;;16.92;11.44;;;;;;;8.04;91.78;99695.34;2319786;69;20766;-81
2021/10/17 00:59:19;;;;;;;16.65;10.94;;;;;;;8.07;91.71;99700.53;2320111;69;20310;-81
2021/10/17 01:02:22;;;;;;;20.24;11.50;;;;;;;8.10;91.67;99700.59;2321662;66;30541;-81
2021/10/17 01:05:25;;;;;;;17.21;11.64;;;;;;;8.13;91.72;99695.47;2330418;69;20281;-81
2021/10/17 01:08:28;;;;;;;19.98;11.85;;;;;;;8.16;91.74;99690.31;2321667;69;20726;-82
2021/10/17 01:11:46;;;;;;;19.06;12.60;;;;;;;8.19;91.88;99684.28;2323785;69;20311;-82
2021/10/17 01:14:49;;;;;;;19.60;11.57;;;;;;;8.18;92.17;99683.44;2325895;69;20300;-81
2021/10/17 01:21:51;;;;;;;23.05;13.09;;;;;;;8.18;92.74;99679.97;2326833;69;20313;-82
2021/10/17 01:24:54;;;;;;;22.89;12.73;;;;;;;8.22;92.80;99681.72;2333394;69;20164;-82
2021/10/17 01:27:57;;;;;;;20.77;13.13;;;;;;;8.25;92.67;99676.59;2331122;69;20254;-82
2021/10/17 01:31:00;;;;;;;20.70;12.76;;;;;;;8.28;92.71;99676.63;2334044;69;20265;-82
2021/10/17 01:34:05;;;;;;;19.98;12.31;;;;;;;8.32;92.36;99675.81;2335118;68;20304;-82
2021/10/17 01:37:08;;;;;;;22.26;12.75;;;;;;;8.37;91.90;99671.56;2337343;69;20244;-83
2021/10/17 01:40:11;;;;;;;24.98;13.82;;;;;;;8.41;91.66;99673.31;2345110;68;20256;-82
2021/10/17 01:43:15;;;;;;;22.27;13.29;;;;;;;8.44;91.57;99662.16;2349179;68;20248;-82
2021/10/17 01:46:17;;;;;;;25.94;14.61;;;;;;;8.46;91.39;99656.13;2354530;68;20282;-82
2021/10/17 01:49:20;;;;;;;22.64;13.36;;;;;;;8.48;91.44;99654.41;2339224;68;20240;-82
2021/10/17 01:52:23;;;;;;;25.33;14.85;;;;;;;8.46;91.62;99661.31;2349194;68;20289;-82
2021/10/17 01:55:26;;;;;;;23.90;13.56;;;;;;;8.44;91.73;99659.56;2325634;69;20278;-82
2021/10/17 01:58:30;;;;;;;25.38;14.14;;;;;;;8.43;92.01;99658.66;2338242;68;20265;-82
2021/10/17 02:01:33;;;;;;;25.67;14.14;;;;;;;8.44;92.17;99649.22;2333906;69;20298;-83
2021/10/17 02:04:36;;;;;;;23.63;14.10;;;;;;;8.47;92.27;99654.41;2334825;68;20244;-82
2021/10/17 02:07:38;;;;;;;25.58;14.00;;;;;;;8.48;92.37;99657.00;2327369;69;20244;-82
2021/10/17 02:10:41;;;;;;;20.30;13.20;;;;;;;8.51;92.36;99656.16;2344933;68;20241;-82
2021/10/17 02:13:44;;;;;;;22.86;13.40;;;;;;;8.54;92.06;99650.13;2362144;68;20311;-81
2021/10/17 02:16:47;;;;;;;20.74;13.74;;;;;;;8.59;91.91;99659.66;2340888;68;20244;-82
2021/10/17 02:19:49;;;;;;;24.31;14.61;;;;;;;8.61;91.88;99652.78;2338500;68;20266;-82
2021/10/17 02:22:52;;;;;;;23.09;13.86;;;;;;;8.65;91.73;99648.50;2351429;68;20249;-82
2021/10/17 02:25:54;;;;;;;24.74;15.11;;;;;;;8.61;91.82;99650.19;2332600;69;20252;-81
2021/10/17 02:28:58;;;;;;;21.17;12.77;;;;;;;8.61;91.99;99647.59;2354385;68;20330;-82
2021/10/17 02:32:02;;;;;;;24.66;13.96;;;;;;;8.60;91.95;99645.00;2349872;66;32455;-82
2021/10/17 02:35:05;;;;;;;23.55;14.31;;;;;;;8.58;92.12;99647.59;2343983;69;20284;-82
2021/10/17 02:38:08;;;;;;;22.24;13.85;;;;;;;8.59;92.20;99638.97;2348457;68;20290;-82
2021/10/17 02:41:12;;;;;;;21.11;13.64;;;;;;;8.61;92.30;99637.25;2335046;68;20104;-82
2021/10/17 02:44:14;;;;;;;19.08;12.91;;;;;;;8.65;92.28;99632.97;2353693;68;20276;-82
2021/10/17 02:47:17;;;;;;;22.23;13.49;;;;;;;8.68;91.99;99633.88;2333471;66;35689;-81
2021/10/17 02:50:20;;;;;;;21.00;13.66;;;;;;;8.68;92.03;99631.28;2325831;69;20258;-82
2021/10/17 02:53:23;;;;;;;20.90;13.68;;;;;;;8.72;91.82;99634.75;2335617;69;20141;-82
2021/10/17 02:56:26;;;;;;;21.80;13.59;;;;;;;8.76;91.76;99628.72;2321526;69;20129;-82
2021/10/17 02:59:29;;;;;;;21.88;13.56;;;;;;;8.74;91.82;99625.25;2338211;69;20280;-85
2021/10/17 03:02:31;;;;;;;19.11;12.82;;;;;;;8.72;92.01;99635.63;2328587;69;20313;-82
2021/10/17 03:05:34;;;;;;;22.41;14.06;;;;;;;8.73;92.13;99621.81;2327347;69;20303;-82
2021/10/17 03:08:38;;;;;;;21.23;13.65;;;;;;;8.76;91.88;99639.09;2327247;69;20263;-81
2021/10/17 03:11:40;;;;;;;21.71;13.70;;;;;;;8.75;92.14;99627.00;2317533;69;20314;-81
2021/10/17 03:14:43;;;;;;;20.64;13.00;;;;;;;8.73;92.15;99632.16;2314281;69;20259;-83
2021/10/17 03:17:47;;;;;;;21.65;14.11;;;;;;;8.74;92.41;99626.13;2330000;66;32099;-81
2021/10/17 03:20:49;;;;;;;19.58;12.76;;;;;;;8.77;92.42;99628.72;2324358;69;20310;-81
2021/10/17 03:23:52;;;;;;;20.56;13.64;;;;;;;8.77;92.47;99625.28;2350305;69;20372;-82
2021/10/17 03:26:55;;;;;;;21.24;14.66;;;;;;;8.80;92.57;99622.75;2343309;69;20566;-83
2021/10/17 03:29:58;;;;;;;20.76;14.51;;;;;;;8.80;92.49;99625.31;2347491;68;20143;-82
2021/10/17 03:33:00;;;;;;;20.42;13.79;;;;;;;8.82;92.63;99628.78;2349934;66;33738;-81
2021/10/17 03:36:04;;;;;;;22.58;14.59;;;;;;;8.84;92.48;99619.31;2358226;68;20310;-82
2021/10/17 03:39:07;;;;;;;21.30;13.99;;;;;;;8.86;92.44;99620.19;2358252;68;20297;-82
2021/10/17 03:42:10;;;;;;;20.71;14.85;;;;;;;8.89;92.33;99611.56;2334829;69;20415;-82
2021/10/17 03:45:12;;;;;;;20.34;14.32;;;;;;;8.93;92.03;99613.28;2349790;68;20248;-81
2021/10/17 03:48:15;;;;;;;18.90;13.99;;;;;;;8.94;92.05;99612.44;2329732;69;20108;-82
2021/10/17 03:51:18;;;;;;;20.65;15.04;;;;;;;8.95;92.05;99617.63;2350670;68;20343;-82
2021/10/17 03:54:22;;;;;;;20.56;14.77;;;;;;;8.98;91.88;99611.63;2343150;68;20305;-82
2021/10/17 03:57:24;;;;;;;19.40;14.77;;;;;;;8.99;91.61;99610.75;2347357;68;20329;-82
2021/10/17 04:00:27;;;;;;;22.35;15.27;;;;;;;9.03;91.34;99605.59;2344345;68;20304;-82
2021/10/17 04:03:30;;;;;;;22.76;14.84;;;;;;;9.04;91.14;99616.81;2341340;68;20311;-81
2021/10/17 04:06:35;;;;;;;18.35;15.15;;;;;;;9.06;90.91;99617.69;2339097;69;20252;-82
2021/10/17 04:09:38;;;;;;;19.99;15.44;;;;;;;9.07;90.68;99614.25;2346163;69;20137;-82
2021/10/17 04:12:41;;;;;;;19.25;15.48;;;;;;;9.09;90.50;99620.28;2332771;68;20100;-82
2021/10/17 04:15:43;;;;;;;17.75;14.64;;;;;;;9.10;90.28;99619.44;2342090;69;20136;-82
2021/10/17 04:18:46;;;;;;;16.85;14.20;;;;;;;9.12;90.18;99620.31;2347055;69;20276;-82
2021/10/17 04:21:49;;;;;;;18.31;14.96;;;;;;;9.15;89.80;99622.03;2359096;68;20108;-82
2021/10/17 04:24:52;;;;;;;19.09;15.26;;;;;;;9.16;89.62;99622.09;2338847;68;20125;-83
2021/10/17 04:27:55;;;;;;;18.48;14.56;;;;;;;9.17;89.61;99621.22;2348157;68;20371;-81
2021/10/17 04:30:57;;;;;;;16.27;14.26;;;;;;;9.17;89.49;99621.22;2337281;68;20330;-82
2021/10/17 04:34:00;;;;;;;18.61;14.46;;;;;;;9.19;89.40;99626.41;2344006;68;20240;-82
2021/10/17 04:37:05;;;;;;;17.51;13.86;;;;;;;9.17;89.32;99626.41;2335960;68;20234;-82
2021/10/17 04:40:09;;;;;;;17.06;13.88;;;;;;;9.18;89.22;99625.53;2338719;68;20328;-82
2021/10/17 04:43:12;;;;;;;15.90;13.39;;;;;;;9.19;89.16;99634.19;2338467;68;20288;-82
2021/10/17 04:46:15;;;;;;;16.11;13.36;;;;;;;9.20;89.04;99628.13;2333512;68;20194;-82
2021/10/17 04:49:18;;;;;;;15.69;13.52;;;;;;;9.21;89.07;99629.88;2323822;68;20265;-83
2021/10/17 04:52:21;;;;;;;14.89;13.32;;;;;;;9.20;88.90;99626.41;2334964;68;20274;-82
2021/10/17 04:55:23;;;;;;;17.04;13.55;;;;;;;9.21;88.80;99635.03;2345226;69;20296;-82
2021/10/17 04:58:28;;;;;;;19.44;14.80;;;;;;;9.22;88.66;99631.59;2342300;69;20241;-82
2021/10/17 05:01:33;;;;;;;16.34;14.25;;;;;;;9.21;88.71;99627.28;2338803;69;20270;-81
2021/10/17 05:04:37;;;;;;;17.31;14.73;;;;;;;9.21;88.82;99628.13;2340127;69;20246;-82
2021/10/17 05:07:41;;;;;;;16.69;13.52;;;;;;;9.22;88.82;99624.69;2332775;69;20178;-82
2021/10/17 05:10:44;;;;;;;15.35;13.66;;;;;;;9.22;88.67;99627.28;2331295;68;20112;-82
2021/10/17 05:13:47;;;;;;;16.69;13.43;;;;;;;9.24;88.38;99628.16;2370362;68;20231;-82
2021/10/17 05:16:49;;;;;;;18.15;14.24;;;;;;;9.25;88.32;99637.66;2325962;69;20242;-81
2021/10/17 05:19:52;;;;;;;17.11;14.11;;;;;;;9.24;88.47;99640.25;2347548;68;20105;-82
2021/10/17 05:22:55;;;;;;;15.43;13.36;;;;;;;9.23;88.50;99635.91;2331766;68;20109;-82
2021/10/17 05:25:57;;;;;;;16.06;13.84;;;;;;;9.25;88.48;99641.97;2333056;69;20164;-82
2021/10/17 05:29:00;;;;;;;16.83;14.06;;;;;;;9.23;88.42;99641.09;2329085;68;20188;-82
2021/10/17 05:32:03;;;;;;;15.73;14.04;;;;;;;9.24;88.43;99640.25;2331749;69;20229;-83
2021/10/17 05:35:06;;;;;;;18.84;13.75;;;;;;;9.21;88.58;99643.69;2350073;68;21100;-83
2021/10/17 05:38:09;;;;;;;17.13;14.05;;;;;;;9.20;88.74;99643.69;2334309;68;20104;-81
2021/10/17 05:41:12;;;;;;;17.29;14.56;;;;;;;9.20;88.87;99643.69;2352636;68;20179;-82
2021/10/17 05:44:14;;;;;;;17.36;13.99;;;;;;;9.20;88.94;99643.69;2346569;68;20256;-82
2021/10/17 05:47:17;;;;;;;16.13;14.18;;;;;;;9.20;89.10;99638.50;2344487;68;20120;-82
2021/10/17 05:50:20;;;;;;;17.24;14.35;;;;;;;9.19;89.10;99648.00;2344444;68;20201;-82
2021/10/17 05:53:44;;;;;;;19.56;15.30;;;;;;;9.19;88.98;99652.31;2348555;68;20108;-84
2021/10/17 05:56:49;;;;;;;18.19;14.40;;;;;;;9.17;88.77;99648.84;2347157;68;20080;-84
2021/10/17 06:36:25;;;;;;;15.54;13.61;;;;;;;9.31;88.64;99686.03;2318222;68;20162;-83
2021/10/17 06:39:35;;;;;;;18.25;15.24;;;;;;;9.32;88.32;99688.63;2334751;68;20271;-84
2021/10/17 06:42:38;;;;;;;;;;;;;;;9.29;88.00;99695.53;2329974;69;20298;-83
2021/10/17 06:45:41;;;;;;;15.71;13.10;;;;;;;9.29;87.90;99693.81;2337329;68;20005;-83
2021/10/17 06:48:45;;;;;;;15.96;14.02;;;;;;;9.31;88.00;99693.81;2317563;69;20215;-84
2021/10/17 06:51:48;;;;;;;15.98;13.73;;;;;;;9.34;87.94;99706.81;2316084;69;20360;-83
2021/10/17 06:54:51;;;;;;;15.43;13.18;;;;;;;9.39;87.91;99702.50;2317953;69;20161;-81
2021/10/17 06:57:54;;;;;;;17.00;13.91;;;;;;;9.41;87.74;99708.56;2310280;69;20181;-83
2021/10/17 07:00:56;;;;;;;16.02;13.70;;;;;;;9.42;87.34;99712.88;2313645;69;20285;-82
2021/10/17 07:03:59;;;;;;;16.64;13.99;;;;;;;9.43;87.04;99714.63;2309971;69;20150;-82
2021/10/17 07:07:02;;;;;;;16.11;14.09;;;;;;;9.43;86.81;99709.44;2319534;69;20246;-81
2021/10/17 07:10:05;;;;;;;16.56;13.38;;;;;;;9.44;86.59;99712.91;2319646;69;20112;-82
2021/10/17 07:13:08;;;;;;;17.05;14.10;;;;;;;9.44;86.48;99705.97;2331206;68;20152;-83
2021/10/17 07:16:13;;;;;;;17.71;14.31;;;;;;;9.45;86.26;99707.72;2338940;69;20158;-82
2021/10/17 07:19:15;;;;;;;19.38;15.05;;;;;;;9.49;86.23;99711.19;2331569;68;20417;-82
2021/10/17 07:22:18;;;;;;;17.80;14.26;;;;;;;9.51;86.03;99705.16;2326378;68;20245;-80
2021/10/17 07:25:21;;;;;;;16.80;13.75;;;;;;;9.51;85.96;99707.72;2325978;69;20193;-81
2021/10/17 07:28:23;;;;;;;17.94;14.29;;;;;;;9.54;85.80;99705.19;2324577;69;20093;-81
2021/10/17 07:31:26;;;;;;;17.58;14.18;;;;;;;9.57;85.77;99712.97;2332989;68;20158;-81
2021/10/17 07:34:29;;;;;;;15.40;13.14;;;;;;;9.60;85.72;99706.94;2330285;68;20100;-82
2021/10/17 07:37:32;;;;;;;15.23;13.46;;;;;;;9.62;85.41;99711.25;2334166;69;20104;-82
2021/10/17 07:40:35;;;;;;;16.77;13.91;;;;;;;9.64;85.26;99709.53;2326034;68;20147;-80
2021/10/17 07:43:37;;;;;;;16.01;13.25;;;;;;;9.66;84.94;99709.53;2325285;68;20147;-81
2021/10/17 07:46:40;;;;;;;17.06;13.88;;;;;;;9.67;84.77;99716.47;2324788;66;23086;-80
2021/10/17 07:49:42;;;;;;;17.74;13.68;;;;;;;9.68;84.48;99721.66;2327130;69;20536;-80
2021/10/17 07:52:45;;;;;;;16.08;13.19;;;;;;;9.72;84.46;99719.97;2324528;69;20280;-81
2021/10/17 07:55:48;;;;;;;17.30;14.05;;;;;;;9.74;84.40;99718.22;2323383;68;20148;-80
2021/10/17 07:58:52;;;;;;;16.59;14.40;;;;;;;9.76;84.33;99723.41;2326591;69;20197;-83
2021/10/17 08:01:54;;;;;;;15.29;12.91;;;;;;;9.79;84.29;99723.44;2337468;68;20103;-81
2021/10/17 08:04:57;;;;;;;15.69;12.48;;;;;;;9.80;83.72;99727.75;2332499;69;20184;-82
2021/10/17 08:08:00;;;;;;;15.81;12.54;;;;;;;9.77;83.34;99728.63;2338790;68;20161;-81
2021/10/17 08:11:03;;;;;;;16.15;12.21;;;;;;;9.81;83.60;99734.66;2337160;69;20180;-82
2021/10/17 08:14:06;;;;;;;17.88;12.75;;;;;;;9.82;83.40;99737.28;2330465;68;20203;-82
2021/10/17 08:17:08;;;;;;;14.84;12.70;;;;;;;9.84;83.18;99738.13;2343205;68;20130;-81
2021/10/17 08:20:11;;;;;;;15.06;13.46;;;;;;;9.85;83.07;99734.69;2339998;69;20109;-82
2021/10/17 08:23:14;;;;;;;14.23;12.23;;;;;;;9.85;82.76;99733.81;2336530;68;20224;-82
2021/10/17 08:26:18;;;;;;;17.02;12.76;;;;;;;9.89;82.84;99741.63;2340979;68;20147;-81
2021/10/17 08:29:20;;;;;;;15.71;12.84;;;;;;;9.94;82.79;99749.44;2341915;68;20121;-82
2021/10/17 08:32:23;;;;;;;12.95;11.41;;;;;;;9.97;82.72;99744.25;2344475;66;37682;-81
2021/10/17 08:35:26;;;;;;;14.14;11.80;;;;;;;10.02;82.39;99747.72;2334145;68;20138;-82
2021/10/17 08:38:28;;;;;;;16.52;11.79;;;;;;;10.08;82.20;99746.91;2334343;68;20155;-82
2021/10/17 08:41:32;;;;;;;13.81;11.68;;;;;;;10.15;82.02;99743.44;2338667;68;20189;-81
2021/10/17 08:44:35;;;;;;;14.66;11.75;;;;;;;10.21;81.53;99743.47;2342705;68;20145;-81
2021/10/17 08:47:41;;;;;;;13.23;11.41;;;;;;;10.28;81.66;99737.47;2333505;66;23699;-80
2021/10/17 08:50:44;;;;;;;15.05;11.40;;;;;;;10.32;80.97;99744.38;2330908;68;20588;-80
2021/10/17 08:53:47;;;;;;;12.02;9.88;;;;;;;10.36;80.89;99745.25;2325783;68;20214;-82
2021/10/17 08:56:50;;;;;;;13.59;10.63;;;;;;;10.37;80.39;99740.06;2329053;69;20616;-81
2021/10/17 08:59:53;;;;;;;12.74;9.96;;;;;;;10.39;80.19;99750.44;2326919;69;20225;-81
2021/10/17 09:02:56;;;;;;;12.57;10.21;;;;;;;10.40;79.91;99747.84;2324035;66;23858;-81
2021/10/17 09:06:14;;;;;;;12.94;10.54;;;;;;;10.42;79.85;99743.56;2324373;69;20181;-80
2021/10/17 09:09:20;;;;;;;13.41;9.66;;;;;;;10.48;79.82;99751.34;2327142;69;20172;-80
2021/10/17 09:12:25;;;;;;;11.26;9.59;;;;;;;10.51;79.38;99747.88;2324934;69;20197;-80
2021/10/17 09:15:30;;;;;;;13.57;9.84;;;;;;;10.53;78.92;99746.16;2325564;66;24699;-81
2021/10/17 09:18:35;;;;;;;11.89;10.06;;;;;;;10.55;78.32;99747.88;2326772;69;20208;-80
2021/10/17 09:21:57;;;;;;;12.85;10.82;;;;;;;10.59;78.24;99743.56;2325166;69;20159;-80
2021/10/17 09:25:00;;;;;;;12.07;9.14;;;;;;;10.63;77.61;99750.50;2326309;68;20175;-80
2021/10/17 09:28:20;;;;;;;14.51;11.39;;;;;;;10.68;77.71;99747.91;2326060;69;20652;-80
2021/10/17 09:31:23;;;;;;;13.10;10.66;;;;;;;10.73;77.99;99744.44;2326343;66;28383;-80
2021/10/17 09:34:28;;;;;;;12.82;9.70;;;;;;;10.80;78.13;99747.94;2326349;68;20175;-80
2021/10/17 09:37:37;;;;;;;13.06;10.65;;;;;;;10.84;78.07;99747.06;2325513;69;20204;-80
2021/10/17 09:40:41;;;;;;;12.64;10.09;;;;;;;10.89;78.22;99742.72;2326781;69;20155;-81
2021/10/17 09:43:56;;;;;;;11.81;9.55;;;;;;;10.92;77.32;99741.84;2325176;68;20143;-80
2021/10/17 09:47:00;;;;;;;13.00;10.06;;;;;;;10.92;77.65;99744.44;2324548;66;22731;-80
2021/10/17 09:50:13;;;;;;;15.15;11.36;;;;;;;10.89;77.60;99738.38;2324938;69;20172;-80
2021/10/17 09:53:16;;;;;;;13.07;9.93;;;;;;;10.84;77.12;99739.25;2325828;68;20259;-80
2021/10/17 09:56:30;;;;;;;12.29;9.86;;;;;;;10.85;77.28;99741.84;2325495;69;20144;-80
2021/10/17 09:59:33;;;;;;;11.09;9.34;;;;;;;10.91;77.49;99735.78;2335068;69;20104;-81
2021/10/17 10:02:35;;;;;;;13.31;9.09;;;;;;;10.98;77.08;99734.06;2330392;66;49396;-83
2021/10/17 10:05:40;;;;;;;10.85;8.44;;;;;;;11.02;76.23;99739.25;2331486;69;20324;-82
2021/10/17 10:08:44;;;;;;;11.34;9.16;;;;;;;11.07;75.97;99727.13;2331681;69;20171;-82
2021/10/17 10:11:49;;;;;;;9.96;7.88;;;;;;;11.13;75.81;99732.31;2330386;68;20133;-81
2021/10/17 10:14:54;;;;;;;11.54;7.74;;;;;;;11.20;75.55;99739.22;2330406;69;20582;-83
2021/10/17 10:17:57;;;;;;;10.84;8.29;;;;;;;11.28;75.72;99747.00;2330807;69;20184;-82
2021/10/17 10:21:01;;;;;;;9.82;7.82;;;;;;;11.34;74.95;99748.75;2328646;69;20147;-84
2021/10/17 10:24:07;;;;;;;8.95;7.88;;;;;;;11.34;74.48;99747.03;2338360;69;20163;-81
2021/10/17 10:27:10;;;;;;;9.69;7.54;;;;;;;11.37;74.41;99752.22;2328103;69;20105;-82
2021/10/17 10:30:30;;;;;;;10.77;8.75;;;;;;;11.44;74.54;99747.84;2331541;69;20243;-81
2021/10/17 10:33:44;;;;;;;15.32;10.49;;;;;;;11.52;75.22;99747.84;2324228;68;20147;-81
2021/10/17 10:36:49;;;;;;;14.64;10.24;;;;;;;11.47;74.84;99738.31;2323321;69;20181;-80
2021/10/17 10:40:01;;;;;;;10.91;9.00;;;;;;;11.46;74.69;99744.38;2323451;69;20164;-80
2021/10/17 10:43:15;;;;;;;12.66;9.39;;;;;;;11.47;75.09;99738.31;2324767;68;20456;-81
2021/10/17 10:46:28;;;;;;;12.76;9.84;;;;;;;11.38;74.19;99746.13;2317251;66;23873;-81
2021/10/17 10:49:49;;;;;;;13.55;10.38;;;;;;;11.30;74.77;99745.25;2324257;69;20165;-81
2021/10/17 10:52:51;;;;;;;14.71;10.88;;;;;;;11.31;75.42;99744.44;2322045;68;20143;-80
2021/10/17 10:55:54;;;;;;;17.11;11.86;;;;;;;11.33;76.10;99747.88;2323416;69;20171;-80
2021/10/17 10:58:57;;;;;;;15.73;11.59;;;;;;;11.36;75.88;99747.88;2323904;69;20140;-80
2021/10/17 11:02:07;;;;;;;15.16;10.95;;;;;;;11.39;75.86;99753.06;2322408;66;22640;-80
2021/10/17 11:05:16;;;;;;;14.96;10.73;;;;;;;11.47;76.00;99746.09;2324249;69;20321;-82
2021/10/17 11:08:19;;;;;;;14.54;11.07;;;;;;;11.64;76.44;99751.25;2336901;69;20123;-82
2021/10/17 11:11:39;;;;;;;14.38;10.44;;;;;;;11.80;75.87;99744.31;2328048;69;20149;-84
2021/10/17 11:15:01;;;;;;;15.40;10.90;;;;;;;11.95;75.30;99732.97;2340828;68;20201;-82
2021/10/17 11:18:56;;;;;;;13.45;9.59;;;;;;;12.10;74.85;99736.38;2337144;68;20148;-83
2021/10/17 11:23:16;;;;;;;12.30;8.61;;;;;;;12.19;73.35;99730.25;2300184;69;20184;-82
2021/10/17 11:30:38;;;;;;;12.77;8.82;;;;;;;12.23;72.27;99731.13;2339890;68;20197;-80
2021/10/17 11:33:43;;;;;;;14.66;10.10;;;;;;;12.20;71.81;99725.91;2326835;68;20190;-80
2021/10/17 11:36:50;;;;;;;13.15;9.54;;;;;;;12.06;71.50;99732.06;2331078;68;20099;-81
2021/10/17 11:40:14;;;;;;;13.98;10.13;;;;;;;11.97;71.97;99731.22;2338597;68;20151;-81
2021/10/17 11:43:46;;;;;;;14.63;10.31;;;;;;;11.94;72.91;99731.25;2343523;68;20147;-81
2021/10/17 11:46:48;;;;;;;;;;;;;;;11.85;73.00;99737.38;2329361;66;25294;-80
2021/10/17 11:49:52;;;;;;;13.52;8.86;;;;;;;11.82;73.41;99741.69;2331622;68;20038;-80
2021/10/17 11:52:58;;;;;;;12.16;9.61;;;;;;;11.78;73.06;99746.91;2330162;68;20139;-81
2021/10/17 11:56:01;;;;;;;13.00;8.90;;;;;;;11.74;73.27;99742.56;2329618;68;20281;-80
2021/10/17 11:59:14;;;;;;;13.90;9.89;;;;;;;11.77;74.06;99739.09;2330990;68;20162;-80
2021/10/17 12:02:34;;;;;;;13.10;9.61;;;;;;;11.79;73.22;99734.78;2329530;68;20151;-80
2021/10/17 12:05:43;;;;;;;13.01;9.24;;;;;;;11.78;72.50;99739.13;2329744;68;20151;-80
2021/10/17 12:08:51;;;;;;;14.34;8.70;;;;;;;11.82;72.46;99726.09;2327851;68;20184;-81
2021/10/17 12:11:59;;;;;;;11.74;8.40;;;;;;;11.90;72.69;99727.81;2331764;68;20174;-80
2021/10/17 12:15:08;;;;;;;11.24;8.49;;;;;;;11.94;71.34;99726.03;2330637;68;20182;-80
2021/10/17 12:18:10;;;;;;;12.75;8.96;;;;;;;12.03;71.90;99724.28;2330546;66;29017;-80
2021/10/17 12:21:19;;;;;;;13.96;8.95;;;;;;;12.18;72.08;99723.31;2331028;68;20177;-80
2021/10/17 12:24:23;;;;;;;13.13;9.17;;;;;;;12.30;71.48;99718.03;2332192;68;20620;-80
2021/10/17 12:27:35;;;;;;;13.38;9.14;;;;;;;12.31;70.30;99711.94;2331070;68;20169;-79
2021/10/17 12:30:51;;;;;;;11.85;8.75;;;;;;;12.28;69.49;99711.13;2326809;66;38401;-80
2021/10/17 12:33:59;;;;;;;11.61;8.38;;;;;;;12.34;70.58;99708.47;2331377;68;20163;-81
2021/10/17 12:37:02;;;;;;;11.34;8.00;;;;;;;12.48;70.28;99711.84;2322954;68;20143;-80
2021/10/17 12:40:06;;;;;;;11.10;8.13;;;;;;;12.43;69.10;99712.75;2326859;68;21034;-80
2021/10/17 12:43:11;;;;;;;11.13;7.75;;;;;;;12.44;69.72;99711.88;2331150;68;20218;-80
2021/10/17 12:46:20;;;;;;;10.44;7.13;;;;;;;12.43;69.09;99711.03;2308426;68;695539;-81
2021/10/17 12:49:24;;;;;;;10.60;6.97;;;;;;;12.43;68.86;99716.22;2331522;68;20191;-80
2021/10/17 12:52:32;;;;;;;9.44;6.79;;;;;;;12.51;69.07;99717.03;2322214;68;20666;-80
2021/10/17 12:55:57;;;;;;;9.77;7.28;;;;;;;12.59;69.12;99707.44;2331594;68;20546;-80
2021/10/17 12:59:16;;;;;;;9.41;6.84;;;;;;;12.68;68.16;99709.09;2326912;68;20322;-81
2021/10/17 13:02:20;;;;;;;8.76;6.81;;;;;;;12.80;68.15;99698.56;2320108;68;749919;-80
2021/10/17 13:05:39;;;;;;;9.48;6.78;;;;;;;12.95;68.53;99706.25;2331909;68;20151;-80
2021/10/17 13:08:58;;;;;;;9.55;6.69;;;;;;;13.10;67.81;99696.53;2332107;68;20190;-80
2021/10/17 13:12:22;;;;;;;8.98;6.33;;;;;;;12.97;65.70;99703.66;2332835;68;21117;-80
2021/10/17 13:15:43;;;;;;;8.73;6.24;;;;;;;12.85;65.76;99702.00;2332004;68;20163;-81
2021/10/17 13:18:53;;;;;;;7.80;6.03;;;;;;;12.88;66.70;99693.28;2318581;68;20154;-80
2021/10/17 13:22:22;;;;;;;8.82;5.97;;;;;;;12.99;67.30;99694.06;2331069;68;20181;-80
2021/10/17 13:25:30;;;;;;;7.97;5.84;;;;;;;13.06;65.36;99674.88;2330561;68;20135;-80
2021/10/17 13:28:45;;;;;;;7.36;5.31;;;;;;;13.18;65.34;99686.97;2331358;68;20204;-80
2021/10/17 13:32:14;;;;;;;7.66;5.33;;;;;;;13.30;65.99;99686.84;2314266;68;974303;-80
2021/10/17 13:35:53;;;;;;;6.28;4.84;;;;;;;13.46;65.16;99690.97;2332387;68;20204;-81
2021/10/17 13:39:40;;;;;;;5.57;4.84;;;;;;;13.54;63.91;99690.91;2334582;68;20240;-81
2021/10/17 13:43:47;;;;;;;7.25;4.86;;;;;;;13.54;63.96;99694.38;2331716;68;20301;-81
2021/10/17 13:47:09;;;;;;;7.36;4.70;;;;;;;13.74;64.30;99688.06;2323892;68;20282;-80
2021/10/17 13:50:37;;;;;;;6.64;4.99;;;;;;;13.66;63.01;99684.69;2333058;68;20151;-81
2021/10/17 13:53:57;;;;;;;5.89;4.51;;;;;;;13.40;62.10;99690.19;2334321;68;20237;-80
2021/10/17 13:57:08;;;;;;;7.55;4.59;;;;;;;13.33;63.63;99692.00;2332741;68;20143;-81
2021/10/17 14:00:52;;;;;;;6.97;4.31;;;;;;;13.38;64.36;99689.34;2324832;66;766200;-80
2021/10/17 14:04:06;;;;;;;;;;;;;;;13.44;63.76;99684.91;2317663;68;20187;-80
2021/10/17 14:07:29;;;;;;;4.85;4.00;;;;;;;13.42;63.45;99681.47;2331822;68;20060;-80
2021/10/17 14:10:45;;;;;;;4.91;3.85;;;;;;;13.45;63.65;99676.22;2331777;68;20155;-81
2021/10/17 14:14:28;;;;;;;4.72;3.80;;;;;;;13.54;63.17;99672.66;2323055;68;20584;-81
2021/10/17 14:17:39;;;;;;;5.22;4.26;;;;;;;13.57;61.94;99681.28;2322540;68;818659;-81
2021/10/17 14:21:06;;;;;;;6.35;4.35;;;;;;;13.64;61.78;99682.06;2317460;68;20817;-80
2021/10/17 14:25:00;;;;;;;9.06;4.57;;;;;;;13.72;62.01;99682.84;2332907;68;20806;-80
2021/10/17 14:28:15;;;;;;;7.40;4.57;;;;;;;13.89;61.23;99687.88;2326318;68;20159;-80
2021/10/17 14:31:24;;;;;;;6.04;4.02;;;;;;;13.93;60.79;99684.31;2323409;66;24075;-80
2021/10/17 14:34:43;;;;;;;6.00;4.28;;;;;;;13.85;59.41;99694.00;2329531;68;20151;-80
2021/10/17 14:38:03;;;;;;;5.74;4.09;;;;;;;13.72;59.38;99688.06;2333381;68;20667;-80
2021/10/17 14:41:12;;;;;;;5.30;4.49;;;;;;;13.71;60.83;99691.56;2319956;68;20284;-80
2021/10/17 14:44:28;;;;;;;6.14;3.71;;;;;;;13.72;61.34;99687.22;2330518;68;20172;-80
2021/10/17 14:47:42;;;;;;;6.00;3.56;;;;;;;13.79;61.32;99675.81;2328501;66;24063;-80
2021/10/17 14:50:45;;;;;;;5.55;3.31;;;;;;;13.78;60.54;99684.53;2328720;68;20207;-80
2021/10/17 14:53:53;;;;;;;;;;;;;;;13.71;59.30;99685.50;2334737;68;20279;-80
2021/10/17 14:56:57;;;;;;;2.99;2.65;;;;;;;13.70;60.13;99689.84;2330392;68;20124;-80
2021/10/17 15:00:04;;;;;;;4.93;2.81;;;;;;;13.73;59.86;99694.16;2330379;68;20151;-80
2021/10/17 15:03:10;;;;;;;5.40;2.45;;;;;;;13.73;59.80;99689.81;2316760;68;975542;-80
2021/10/17 15:06:15;;;;;;;4.50;2.88;;;;;;;13.81;60.21;99681.88;2325454;68;20245;-80
2021/10/17 15:09:32;;;;;;;3.97;3.01;;;;;;;13.84;59.37;99682.72;2330439;68;20146;-80
2021/10/17 15:12:53;;;;;;;4.04;3.20;;;;;;;13.75;59.16;99685.44;2326813;68;20264;-81
2021/10/17 15:16:06;;;;;;;5.09;3.43;;;;;;;13.54;59.64;99685.69;2289865;69;20913;-80
2021/10/17 15:19:10;;;;;;;4.49;3.15;;;;;;;13.51;59.72;99694.41;2290899;70;20168;-80
2021/10/17 15:22:13;;;;;;;4.72;3.36;;;;;;;13.59;59.99;99696.94;2289264;70;20171;-80